Port Mansfield, Texas
Current Conditions -  °F | °C
As of 12:52 PM on Friday 28 Nov 2014 (Local Time) from KHRL Reporting Station
Few Clouds Few Clouds  
Wind Chill: 77°   Ceiling: Unl
Heat Index: 79°   Visibility: 10mi
Dew Point: 57°   Wind: 17mph
Humidity: 50%   Direction: 170°S
Pressure: 30.21"   Gusts: 23mph
Location:  26.56°N, 97.43°W
Report Text: KHRL 281852Z 17015G20KT 10SM FEW045 25/14 A3021 RMK AO2 SLP231 T02500139
Loading
Personal Weather Stations






























Interactive Weather Map New forecast layout! Learn more

10-Day Weather Forecast

Advertisements
Track Severe Weather on mobile